Time;durP1;ratioP1;P1;durP2;ratioP2;P2;SDS_P1;SDS_P2;PMS_P1;PMS_P2;Temp;Humidity;BMP_temperature;BMP_pressure;BME280_temperature;BME280_humidity;BME280_pressure;Samples;Min_cycle;Max_cycle;Signal;HPM_P1;HPM_P2
2022/10/24 00:01:22;;;;;;;124.22;11.52;;;;;;;16.06;63.00;101358.75;4950083;29;20051;-79
2022/10/24 00:03:49;;;;;;;51.58;7.50;;;;;;;16.03;63.17;101365.31;4953229;28;20401;-79
2022/10/24 00:06:15;;;;;;;26.35;5.40;;;;;;;16.01;63.11;101356.47;4952880;28;20119;-79
2022/10/24 00:08:42;;;;;;;40.38;6.28;;;;;;;15.95;63.56;101348.91;4952543;28;20557;-82
2022/10/24 00:11:13;;;;;;;12.98;5.57;;;;;;;15.86;63.67;101343.47;4952309;28;20388;-79
2022/10/24 00:13:39;;;;;;;33.63;6.95;;;;;;;15.82;63.78;101332.03;4952488;28;20446;-79
2022/10/24 00:16:05;;;;;;;18.83;6.32;;;;;;;15.86;63.81;101324.50;4933718;29;20043;-78
2022/10/24 00:18:30;;;;;;;39.47;6.40;;;;;;;15.65;64.14;101300.22;4952653;28;20078;-79
2022/10/24 00:20:56;;;;;;;22.25;6.53;;;;;;;15.87;63.86;101329.75;4951897;28;20037;-79
2022/10/24 00:23:21;;;;;;;39.80;7.85;;;;;;;15.85;63.88;101323.63;4952394;28;20035;-80
2022/10/24 00:25:47;;;;;;;24.48;5.78;;;;;;;15.83;63.40;101330.19;4952998;28;20042;-79
2022/10/24 00:28:12;;;;;;;20.95;6.63;;;;;;;15.84;63.32;101324.63;4952212;29;20563;-79
2022/10/24 00:30:38;;;;;;;14.77;5.88;;;;;;;15.80;62.74;101298.78;4952017;28;21184;-77
2022/10/24 00:33:03;;;;;;;63.63;8.20;;;;;;;15.90;63.04;101306.94;4934363;29;20118;-78
2022/10/24 00:35:29;;;;;;;13.68;5.45;;;;;;;16.00;62.33;101334.91;4970386;28;20023;-77
2022/10/24 00:37:54;;;;;;;8.77;5.50;;;;;;;15.87;62.50;101297.19;4971701;28;20041;-77
2022/10/24 00:40:20;;;;;;;10.10;5.93;;;;;;;16.00;62.24;101333.06;4968087;28;20027;-79
2022/10/24 00:42:47;;;;;;;15.63;6.13;;;;;;;16.06;62.15;101339.75;4951703;28;20054;-79
2022/10/24 00:45:46;;;;;;;9.77;6.32;;;;;;;16.13;61.92;101333.63;4950593;28;20679;-80
2022/10/24 00:48:21;;;;;;;22.77;7.40;;;;;;;16.13;61.65;101339.06;4950406;28;20517;-80
2022/10/24 00:50:51;;;;;;;23.80;7.03;;;;;;;16.12;61.69;101340.06;4951001;28;20032;-79
2022/10/24 00:53:19;;;;;;;14.15;7.68;;;;;;;16.04;61.77;101341.78;4950860;28;20042;-79
2022/10/24 00:55:48;;;;;;;12.70;5.93;;;;;;;15.92;61.73;101324.78;4950790;28;20027;-80
2022/10/24 00:58:16;;;;;;;25.50;6.97;;;;;;;15.66;61.97;101293.75;4950520;28;20455;-80
2022/10/24 01:00:42;;;;;;;14.63;6.65;;;;;;;15.81;62.44;101335.75;4950668;28;20110;-78
2022/10/24 01:03:10;;;;;;;11.23;6.65;;;;;;;15.78;62.71;101347.75;4950777;28;20107;-78
2022/10/24 01:05:47;;;;;;;12.40;6.60;;;;;;;15.75;62.65;101336.31;4950651;28;20038;-78
2022/10/24 01:08:30;;;;;;;17.30;7.93;;;;;;;15.74;62.96;101340.91;4950360;28;20466;-79
2022/10/24 01:11:09;;;;;;;22.25;10.05;;;;;;;15.71;62.98;101340.31;4950135;28;20035;-79
2022/10/24 01:13:34;;;;;;;22.15;11.40;;;;;;;15.63;62.82;101348.28;4950896;28;20091;-78
2022/10/24 01:16:40;;;;;;;23.02;11.35;;;;;;;15.59;62.82;101344.16;4950383;28;20857;-76
2022/10/24 01:19:24;;;;;;;30.35;11.70;;;;;;;15.57;62.98;101348.84;4950281;29;20215;-77
2022/10/24 01:21:56;;;;;;;26.90;11.27;;;;;;;15.51;63.02;101341.25;4949969;29;20331;-79
2022/10/24 01:24:35;;;;;;;41.80;13.35;;;;;;;15.55;62.89;101340.84;4950458;28;20110;-79
2022/10/24 01:27:15;;;;;;;26.42;14.95;;;;;;;15.35;63.27;101308.41;4950035;28;20496;-81
2022/10/24 01:32:40;;;;;;;30.33;14.68;;;;;;;15.65;62.67;101343.59;5143705;27;20123;-78
2022/10/24 01:35:24;;;;;;;43.42;14.57;;;;;;;15.69;62.62;101343.16;5128148;27;20409;-82
2022/10/24 01:38:07;;;;;;;35.92;14.30;;;;;;;15.75;62.69;101342.59;5127660;28;20028;-81
2022/10/24 01:40:38;;;;;;;28.88;13.57;;;;;;;15.72;62.87;101342.00;5128949;27;20160;-78
2022/10/24 01:43:09;;;;;;;26.27;13.07;;;;;;;15.63;62.92;101337.44;5128709;27;20035;-80
2022/10/24 01:45:38;;;;;;;34.97;12.30;;;;;;;15.60;62.91;101343.13;5128683;27;20184;-79
2022/10/24 01:48:08;;;;;;;28.48;17.05;;;;;;;15.63;62.89;101332.88;5140724;27;20034;-77
2022/10/24 01:50:36;;;;;;;29.05;17.33;;;;;;;15.67;62.54;101344.31;5150053;27;20034;-79
2022/10/24 01:53:02;;;;;;;19.77;12.00;;;;;;;15.72;62.62;101340.16;5149726;27;20558;-77
2022/10/24 01:55:30;;;;;;;24.27;11.93;;;;;;;15.71;62.74;101345.75;5130062;27;20023;-78
2022/10/24 01:57:55;;;;;;;23.65;11.45;;;;;;;15.76;62.53;101348.88;5127593;27;20028;-80
2022/10/24 02:00:22;;;;;;;27.88;11.80;;;;;;;15.80;62.57;101339.47;5127620;27;20030;-79
2022/10/24 02:02:59;;;;;;;17.67;10.27;;;;;;;15.81;62.64;101354.72;5127228;27;20059;-79
2022/10/24 02:05:35;;;;;;;16.25;10.48;;;;;;;15.84;62.53;101338.16;5127208;27;20023;-80
2022/10/24 02:08:06;;;;;;;24.95;8.80;;;;;;;15.87;62.16;101339.78;5127327;27;20074;-79
2022/10/24 02:10:38;;;;;;;25.50;8.40;;;;;;;15.92;62.19;101342.91;5127218;27;20113;-78
2022/10/24 02:13:13;;;;;;;12.40;7.97;;;;;;;15.92;61.96;101338.34;5124612;27;20099;-79
2022/10/24 02:15:44;;;;;;;19.35;8.13;;;;;;;15.95;62.11;101343.50;5127247;27;20027;-78
2022/10/24 02:18:11;;;;;;;21.35;9.50;;;;;;;15.93;62.28;101342.75;5126846;27;20474;-78
2022/10/24 02:20:45;;;;;;;15.50;8.63;;;;;;;15.99;61.93;101344.06;5126822;27;20024;-79
2022/10/24 02:23:29;;;;;;;20.88;10.85;;;;;;;16.00;61.99;101349.34;5127093;27;20416;-80
2022/10/24 02:25:59;;;;;;;16.77;9.80;;;;;;;16.00;61.90;101345.75;5126697;27;20024;-80
2022/10/24 02:28:31;;;;;;;23.75;10.82;;;;;;;16.02;61.75;101347.34;5126594;27;20072;-79
2022/10/24 02:31:03;;;;;;;17.20;10.75;;;;;;;16.06;62.07;101346.06;5126526;27;20055;-79
2022/10/24 02:33:30;;;;;;;24.48;10.65;;;;;;;15.93;61.67;101329.19;5127198;27;20118;-79
2022/10/24 02:35:56;;;;;;;16.27;9.55;;;;;;;16.05;61.81;101352.50;5127093;27;20027;-80
2022/10/24 02:38:34;;;;;;;18.75;9.75;;;;;;;15.95;61.84;101315.50;5126694;28;20015;-78
2022/10/24 02:41:04;;;;;;;26.83;10.45;;;;;;;16.14;61.81;101348.94;5126301;27;20395;-78
2022/10/24 02:43:31;;;;;;;23.80;9.90;;;;;;;16.13;61.76;101355.34;5115221;27;20024;-79
2022/10/24 02:45:57;;;;;;;55.58;11.27;;;;;;;16.13;61.75;101339.06;5112692;28;20125;-78
2022/10/24 02:48:28;;;;;;;30.38;7.45;;;;;;;16.13;61.79;101347.19;5111293;28;20369;-80
2022/10/24 02:50:54;;;;;;;19.50;6.53;;;;;;;16.10;61.98;101358.34;5112738;28;20470;-78
2022/10/24 02:53:23;;;;;;;9.82;6.63;;;;;;;16.06;61.95;101356.91;5113083;28;20070;-78
2022/10/24 02:55:48;;;;;;;12.30;6.30;;;;;;;16.04;62.09;101353.50;5112122;28;20047;-80
2022/10/24 02:58:14;;;;;;;13.23;7.13;;;;;;;15.86;62.05;101335.34;5113364;28;20082;-79
2022/10/24 03:00:39;;;;;;;23.98;6.80;;;;;;;15.98;62.13;101356.78;5120076;28;20051;-78
2022/10/24 03:03:05;;;;;;;21.25;7.18;;;;;;;15.99;62.33;101355.75;5136234;28;20035;-77
2022/10/24 03:05:30;;;;;;;32.95;8.77;;;;;;;15.97;62.08;101363.19;5134328;27;20028;-78
2022/10/24 03:07:56;;;;;;;22.55;10.48;;;;;;;15.87;62.48;101346.03;5122988;28;20138;-78
2022/10/24 03:10:21;;;;;;;48.38;11.80;;;;;;;15.88;62.08;101353.19;5112644;28;20114;-78
2022/10/24 03:12:47;;;;;;;27.70;11.50;;;;;;;15.66;62.29;101329.03;5112650;28;20447;-78
2022/10/24 03:15:12;;;;;;;34.15;10.95;;;;;;;15.85;62.34;101348.03;5112354;28;20023;-79
2022/10/24 03:17:38;;;;;;;18.38;11.15;;;;;;;15.82;61.95;101342.91;5112175;28;20028;-78
2022/10/24 03:20:04;;;;;;;29.33;10.82;;;;;;;15.71;62.20;101348.47;5112235;28;20509;-78
2022/10/24 03:22:29;;;;;;;25.80;11.40;;;;;;;15.66;62.08;101337.16;5112114;28;20483;-80
2022/10/24 03:24:55;;;;;;;18.67;10.10;;;;;;;15.69;62.30;101342.28;5112102;28;20027;-79
2022/10/24 03:27:20;;;;;;;43.13;12.32;;;;;;;15.60;62.29;101332.28;5112148;28;20042;-79
2022/10/24 03:29:46;;;;;;;53.13;12.02;;;;;;;15.66;62.59;101345.28;5111739;28;20079;-79
2022/10/24 03:32:11;;;;;;;102.35;15.80;;;;;;;15.46;62.62;101310.97;5111622;28;20054;-81
2022/10/24 03:34:37;;;;;;;31.73;11.55;;;;;;;15.60;63.04;101345.84;5112536;28;20034;-77
2022/10/24 03:37:02;;;;;;;17.05;8.00;;;;;;;15.61;63.16;101345.72;5111375;28;20115;-79
2022/10/24 03:39:28;;;;;;;30.38;9.82;;;;;;;15.42;63.40;101314.94;5112042;28;20111;-78
2022/10/24 03:41:53;;;;;;;29.30;8.75;;;;;;;15.53;63.27;101336.59;5112058;28;20050;-82
2022/10/24 03:44:18;;;;;;;43.70;10.23;;;;;;;15.52;63.79;101343.84;5111593;28;20114;-80
2022/10/24 03:46:44;;;;;;;53.25;9.38;;;;;;;15.50;63.70;101342.28;5111363;28;20405;-79
2022/10/24 03:49:09;;;;;;;33.40;9.35;;;;;;;15.25;63.69;101305.66;5111415;28;20031;-78
2022/10/24 03:51:35;;;;;;;72.15;11.15;;;;;;;15.42;63.94;101325.78;5110923;28;20023;-79
2022/10/24 03:54:00;;;;;;;71.78;11.20;;;;;;;15.43;64.17;101335.66;5110211;28;20028;-81
2022/10/24 03:56:26;;;;;;;38.20;7.80;;;;;;;15.40;64.18;101336.78;5111705;28;20031;-79
2022/10/24 03:58:51;;;;;;;74.35;10.18;;;;;;;15.31;64.47;101329.50;5111013;28;20107;-77
2022/10/24 04:01:17;;;;;;;83.60;12.20;;;;;;;15.32;64.70;101327.66;5108732;28;20130;-78
2022/10/24 04:03:45;;;;;;;151.70;14.05;;;;;;;15.35;64.54;101338.22;5110699;28;20062;-77
2022/10/24 04:06:12;;;;;;;126.57;15.60;;;;;;;15.36;64.69;101340.78;5111185;28;20034;-80
2022/10/24 04:08:37;;;;;;;78.75;11.18;;;;;;;15.34;64.55;101331.06;5108790;28;20066;-78
2022/10/24 04:11:04;;;;;;;146.48;12.55;;;;;;;15.33;64.70;101345.59;5109878;28;21051;-80
2022/10/24 04:13:30;;;;;;;129.90;13.95;;;;;;;15.33;64.83;101334.75;5113781;28;20015;-80
2022/10/24 04:15:55;;;;;;;270.58;18.40;;;;;;;15.35;65.01;101346.34;5133767;28;20062;-80
2022/10/24 04:18:21;;;;;;;462.73;37.67;;;;;;;15.30;65.22;101338.59;5133595;28;20027;-78
2022/10/24 04:20:46;;;;;;;228.18;16.80;;;;;;;15.30;65.50;101332.31;5126170;28;20483;-77
2022/10/24 04:23:12;;;;;;;177.93;17.45;;;;;;;15.30;65.47;101325.06;5111809;28;20011;-84
2022/10/24 04:25:39;;;;;;;189.55;20.25;;;;;;;15.34;65.44;101317.50;5110902;28;20407;-78
2022/10/24 04:28:05;;;;;;;410.25;31.77;;;;;;;15.39;65.13;101317.94;5110576;28;20034;-81
2022/10/24 04:30:30;;;;;;;90.93;14.43;;;;;;;15.30;65.23;101310.66;5110543;28;20051;-80
2022/10/24 04:32:56;;;;;;;85.82;16.35;;;;;;;15.16;65.72;101323.59;5110645;28;20046;-77
2022/10/24 04:35:22;;;;;;;94.55;42.72;;;;;;;14.99;65.24;101291.72;5111359;28;20081;-85
2022/10/24 04:37:48;;;;;;;69.88;30.95;;;;;;;15.11;65.41;101325.84;5111703;28;20030;-87
2022/10/24 04:40:13;;;;;;;128.80;37.03;;;;;;;15.07;64.76;101308.16;5111304;28;20029;-75
2022/10/24 04:42:39;;;;;;;433.98;42.75;;;;;;;15.28;64.68;101348.75;5110358;27;20033;-82
2022/10/24 04:45:05;;;;;;;109.28;27.25;;;;;;;15.11;64.28;101325.84;5110065;28;20820;-77
2022/10/24 04:47:30;;;;;;;176.25;23.48;;;;;;;15.14;64.45;101341.84;5091073;28;20040;-78
2022/10/24 04:49:56;;;;;;;301.88;33.35;;;;;;;15.17;64.21;101352.41;5109694;28;20019;-79
2022/10/24 04:52:22;;;;;;;294.92;54.60;;;;;;;15.14;64.39;101341.84;5110606;28;20019;-79
2022/10/24 04:54:47;;;;;;;82.40;23.45;;;;;;;15.22;63.80;101362.84;5110538;28;20051;-81
2022/10/24 04:57:13;;;;;;;72.50;22.88;;;;;;;15.13;64.00;101367.22;5110046;28;20104;-77
2022/10/24 04:59:38;;;;;;;86.60;23.25;;;;;;;14.85;64.07;101324.59;5110704;28;20023;-78
2022/10/24 05:02:03;;;;;;;130.95;30.15;;;;;;;15.10;64.01;101375.63;5109893;28;20107;-79
2022/10/24 05:04:29;;;;;;;113.50;26.73;;;;;;;15.06;63.92;101370.59;5109771;27;20035;-79
2022/10/24 05:06:54;;;;;;;292.90;39.30;;;;;;;14.99;63.69;101356.75;5109547;28;20020;-79
2022/10/24 05:09:20;;;;;;;89.88;28.48;;;;;;;15.03;63.83;101382.56;5110154;28;20080;-79
2022/10/24 05:11:45;;;;;;;66.28;24.08;;;;;;;15.00;64.01;101376.56;5109867;28;20115;-79
2022/10/24 05:14:10;;;;;;;94.03;25.67;;;;;;;15.02;64.26;101386.28;5110117;28;20031;-77
2022/10/24 05:16:36;;;;;;;109.38;26.42;;;;;;;14.94;64.13;101383.38;5109693;28;20020;-78
2022/10/24 05:19:01;;;;;;;239.77;34.72;;;;;;;15.03;64.45;101382.56;5109107;28;20405;-77
2022/10/24 05:21:27;;;;;;;75.95;26.50;;;;;;;14.93;64.25;101395.22;5090288;28;20042;-78
2022/10/24 05:23:52;;;;;;;163.43;36.00;;;;;;;14.94;64.71;101383.38;5109509;28;20034;-79
2022/10/24 05:26:18;;;;;;;64.93;23.38;;;;;;;14.86;64.57;101369.63;5109281;28;20027;-77
2022/10/24 05:28:43;;;;;;;105.75;26.20;;;;;;;14.94;64.73;101383.38;5126108;28;20061;-79
2022/10/24 05:31:09;;;;;;;152.65;54.03;;;;;;;14.90;64.74;101359.41;5132237;28;20065;-79
2022/10/24 05:33:34;;;;;;;254.23;35.20;;;;;;;15.06;64.43;101376.88;5132253;28;20035;-81
2022/10/24 05:36:00;;;;;;;1999.90;255.63;;;;;;;15.02;64.63;101352.91;5109613;28;20024;-81
2022/10/24 05:38:25;;;;;;;500.05;115.47;;;;;;;15.15;64.71;101370.66;5109846;28;20034;-80
2022/10/24 05:40:51;;;;;;;599.30;62.85;;;;;;;15.24;64.87;101380.69;5110746;28;20027;-80
2022/10/24 05:43:17;;;;;;;1705.22;195.00;;;;;;;15.27;64.59;101369.56;5111973;28;20027;-81
2022/10/24 05:45:43;;;;;;;431.63;53.28;;;;;;;15.32;64.87;101374.56;5112786;28;20035;-83
2022/10/24 05:48:08;;;;;;;238.93;38.22;;;;;;;15.41;64.38;101375.59;5112267;28;20024;-81
2022/10/24 05:50:34;;;;;;;1025.50;90.40;;;;;;;15.48;64.44;101383.06;5111355;28;20117;-78
2022/10/24 05:53:00;;;;;;;727.80;66.13;;;;;;;15.46;64.42;101362.50;5109607;28;20027;-81
2022/10/24 05:55:26;;;;;;;397.13;42.03;;;;;;;15.62;64.53;101381.84;5109746;28;20031;-81
2022/10/24 05:57:51;;;;;;;504.60;58.13;;;;;;;15.72;64.10;101380.00;5109275;28;20105;-82
2022/10/24 06:00:18;;;;;;;664.03;83.93;;;;;;;15.84;64.15;101389.72;5089435;28;20119;-78
2022/10/24 06:02:44;;;;;;;299.50;44.70;;;;;;;15.95;63.77;101397.75;5109395;28;20034;-80
2022/10/24 06:05:10;;;;;;;462.90;53.30;;;;;;;16.02;63.77;101407.06;5109381;28;20106;-80
2022/10/24 06:07:36;;;;;;;116.88;26.80;;;;;;;16.13;63.78;101406.91;5108236;28;20029;-79
2022/10/24 06:10:04;;;;;;;85.05;24.30;;;;;;;16.21;63.42;101408.91;5109766;28;20027;-80
2022/10/24 06:12:30;;;;;;;80.43;25.25;;;;;;;16.38;63.37;101410.06;5109596;28;20083;-81
2022/10/24 06:14:56;;;;;;;191.05;37.47;;;;;;;16.53;62.79;101406.78;5109183;28;20023;-79
2022/10/24 06:17:21;;;;;;;89.88;29.48;;;;;;;16.64;61.80;101416.63;5110157;28;20482;-80
2022/10/24 06:19:48;;;;;;;104.15;31.55;;;;;;;16.66;60.76;101415.53;5113396;28;20084;-79
2022/10/24 06:22:13;;;;;;;110.47;31.40;;;;;;;16.55;60.47;101390.34;5113424;28;20038;-80
2022/10/24 06:24:39;;;;;;;66.00;23.83;;;;;;;16.75;60.25;101419.22;5113274;28;20379;-78
2022/10/24 06:27:05;;;;;;;58.42;25.50;;;;;;;16.69;60.03;101414.38;5112414;28;20032;-77
2022/10/24 06:29:31;;;;;;;60.88;20.10;;;;;;;16.73;59.80;101407.63;5112909;28;20015;-81
2022/10/24 06:31:57;;;;;;;57.22;19.38;;;;;;;16.82;59.79;101420.31;5107701;28;20507;-78
2022/10/24 06:34:22;;;;;;;61.40;19.42;;;;;;;16.64;59.39;101384.03;5113679;28;20019;-78
2022/10/24 06:36:48;;;;;;;31.08;16.80;;;;;;;16.65;59.45;101396.63;5112012;28;20081;-80
2022/10/24 06:39:13;;;;;;;38.45;16.05;;;;;;;16.80;59.38;101416.91;5113774;28;20514;-83
2022/10/24 06:41:38;;;;;;;53.92;24.83;;;;;;;16.96;59.46;101428.03;5130949;27;20046;-77
2022/10/24 06:44:04;;;;;;;35.53;19.13;;;;;;;16.91;59.25;101414.03;5135469;28;20063;-80
2022/10/24 06:46:29;;;;;;;50.08;19.95;;;;;;;17.12;59.25;101432.88;5136143;28;20031;-80
2022/10/24 06:48:55;;;;;;;38.65;16.95;;;;;;;17.18;59.14;101430.44;5112306;28;20027;-85
2022/10/24 06:51:24;;;;;;;43.80;15.85;;;;;;;17.26;59.12;101425.09;5111981;28;20031;-83
2022/10/24 06:53:49;;;;;;;34.38;12.80;;;;;;;17.35;58.85;101416.03;5112035;28;20032;-81
2022/10/24 06:56:17;;;;;;;51.30;13.35;;;;;;;17.28;58.72;101390.44;5111666;28;20042;-81
2022/10/24 06:58:43;;;;;;;144.40;22.17;;;;;;;17.49;58.80;101413.84;5111066;28;20115;-79
2022/10/24 07:01:20;;;;;;;38.05;13.82;;;;;;;17.51;58.57;101396.38;5111959;28;20449;-80
2022/10/24 07:03:46;;;;;;;41.17;13.90;;;;;;;17.70;58.44;101407.19;5111642;28;20371;-80
2022/10/24 07:06:26;;;;;;;293.23;36.58;;;;;;;17.84;58.34;101397.63;5112338;28;20035;-80
2022/10/24 07:08:54;;;;;;;42.35;13.20;;;;;;;17.92;58.30;101400.44;5111463;27;20030;-80
2022/10/24 07:11:20;;;;;;;75.32;13.82;;;;;;;18.01;57.95;101404.97;5111521;28;20032;-79
2022/10/24 07:13:45;;;;;;;34.55;11.75;;;;;;;18.03;57.30;101397.50;5111793;28;20030;-78
2022/10/24 07:16:11;;;;;;;45.85;9.80;;;;;;;18.17;57.05;101405.13;5110300;28;20395;-81
2022/10/24 07:18:36;;;;;;;41.35;11.98;;;;;;;18.22;56.80;101413.72;5112144;28;20621;-81
2022/10/24 07:21:14;;;;;;;26.17;10.95;;;;;;;18.31;56.78;101407.34;5110447;28;20034;-79
2022/10/24 07:23:40;;;;;;;84.28;17.73;;;;;;;18.38;56.52;101405.69;5110587;27;20024;-79
2022/10/24 07:26:08;;;;;;;45.83;14.35;;;;;;;18.46;56.06;101403.06;5111469;28;20112;-79
2022/10/24 07:28:35;;;;;;;56.03;14.70;;;;;;;18.48;55.92;101408.31;5110863;28;20024;-76
2022/10/24 07:31:01;;;;;;;38.13;12.77;;;;;;;18.48;55.75;101401.00;5110558;28;20059;-80
2022/10/24 07:33:27;;;;;;;94.00;15.43;;;;;;;18.43;55.87;101375.25;5110083;28;20086;-78
2022/10/24 07:35:53;;;;;;;48.72;14.55;;;;;;;18.66;55.82;101405.59;5109877;28;20677;-78
2022/10/24 07:38:19;;;;;;;31.58;13.90;;;;;;;18.80;55.46;101413.22;5115572;28;20023;-79
2022/10/24 07:40:44;;;;;;;64.20;16.73;;;;;;;18.89;55.16;101404.09;5108220;28;20074;-78
2022/10/24 07:43:10;;;;;;;54.55;13.50;;;;;;;18.94;54.81;101409.91;5110645;28;20443;-77
2022/10/24 07:45:38;;;;;;;57.83;11.48;;;;;;;18.99;54.54;101407.56;5110266;28;20747;-78
2022/10/24 07:48:07;;;;;;;49.47;11.18;;;;;;;19.15;54.11;101401.34;5114615;28;20084;-81
2022/10/24 07:50:34;;;;;;;55.22;12.50;;;;;;;19.13;53.92;101387.03;5120289;28;20059;-79
2022/10/24 07:53:00;;;;;;;42.42;10.20;;;;;;;19.23;53.65;101395.97;5118343;28;20034;-80
2022/10/24 07:55:26;;;;;;;32.00;10.18;;;;;;;19.27;53.71;101372.78;5135214;27;20023;-77
2022/10/24 07:57:51;;;;;;;42.47;10.82;;;;;;;19.54;53.11;101413.53;5131811;28;20029;-76
2022/10/24 08:00:17;;;;;;;49.00;9.80;;;;;;;19.60;52.57;101412.03;5123044;28;20102;-79
2022/10/24 08:02:42;;;;;;;33.90;9.68;;;;;;;19.70;52.63;101407.28;5117979;28;20043;-80
2022/10/24 08:05:10;;;;;;;40.45;10.80;;;;;;;19.81;52.35;101409.72;5110928;28;20115;-79
2022/10/24 08:07:36;;;;;;;28.55;9.38;;;;;;;19.93;52.17;101411.13;5111000;28;20111;-80
2022/10/24 08:10:03;;;;;;;41.35;10.18;;;;;;;20.05;52.05;101413.38;5111914;28;20032;-80
2022/10/24 08:12:28;;;;;;;31.75;9.70;;;;;;;20.21;51.51;101414.44;5110330;28;20027;-80
2022/10/24 08:14:55;;;;;;;22.15;7.57;;;;;;;20.27;51.11;101401.00;5109784;28;20027;-80
2022/10/24 08:17:22;;;;;;;27.77;9.05;;;;;;;20.47;51.06;101399.66;5110763;28;20751;-82
2022/10/24 08:19:48;;;;;;;25.88;8.98;;;;;;;20.60;50.57;101397.25;5109335;27;20028;-77
2022/10/24 08:22:14;;;;;;;27.55;9.73;;;;;;;20.68;50.08;101385.47;5109411;28;20402;-78
2022/10/24 08:24:45;;;;;;;48.75;10.65;;;;;;;20.90;49.95;101387.50;5110392;28;20038;-79
2022/10/24 08:27:11;;;;;;;52.15;10.90;;;;;;;21.05;49.79;101388.50;5111620;28;20107;-78
2022/10/24 08:29:36;;;;;;;48.22;11.88;;;;;;;21.21;49.00;101390.38;5112144;28;20537;-78
2022/10/24 08:32:02;;;;;;;148.93;19.17;;;;;;;21.29;48.58;101384.84;5090012;28;20154;-78
2022/10/24 08:34:27;;;;;;;686.20;46.20;;;;;;;21.38;48.56;101385.69;5112653;28;20500;-78
2022/10/24 08:36:53;;;;;;;54.33;11.82;;;;;;;21.52;48.22;101384.97;5113681;28;20024;-78
2022/10/24 08:39:19;;;;;;;28.45;9.60;;;;;;;21.68;47.98;101380.25;5114626;27;20035;-77
2022/10/24 08:41:54;;;;;;;51.55;10.85;;;;;;;21.69;47.53;101357.31;5109732;28;20035;-76
2022/10/24 08:44:30;;;;;;;53.42;8.60;;;;;;;21.89;47.54;101373.34;5109418;28;20027;-79
2022/10/24 08:47:03;;;;;;;24.65;7.05;;;;;;;22.02;46.76;101368.09;5110934;28;20035;-78
2022/10/24 08:49:44;;;;;;;59.50;8.75;;;;;;;22.09;46.56;101374.56;5110495;28;20097;-79
2022/10/24 08:52:29;;;;;;;18.73;5.32;;;;;;;22.12;46.66;101376.97;5108944;28;20490;-78
2022/10/24 08:54:57;;;;;;;89.43;10.85;;;;;;;22.21;46.30;101373.13;5108897;28;20035;-76
2022/10/24 08:57:27;;;;;;;16.23;5.18;;;;;;;22.28;46.24;101368.63;5108336;28;20494;-76
2022/10/24 08:59:58;;;;;;;69.20;8.98;;;;;;;22.43;46.14;101372.28;5108635;28;20085;-77
2022/10/24 09:02:26;;;;;;;36.55;6.18;;;;;;;22.57;45.65;101373.34;5108679;28;20048;-78
2022/10/24 09:05:00;;;;;;;15.75;6.38;;;;;;;22.71;45.39;101378.94;5108491;28;20036;-78
2022/10/24 09:07:26;;;;;;;36.28;7.28;;;;;;;22.80;45.33;101378.84;5121387;28;20038;-77
2022/10/24 09:10:02;;;;;;;19.92;5.07;;;;;;;22.72;45.14;101369.63;5123267;28;20032;-78
2022/10/24 09:12:27;;;;;;;43.20;7.35;;;;;;;22.52;45.71;101370.31;5120069;28;20114;-78
2022/10/24 09:14:59;;;;;;;99.35;13.75;;;;;;;22.49;46.24;101367.94;5108400;28;20106;-78
2022/10/24 09:17:31;;;;;;;45.58;13.35;;;;;;;22.53;46.93;101361.91;5108652;28;20054;-77
2022/10/24 09:20:19;;;;;;;20.83;7.38;;;;;;;22.09;47.19;101369.97;5108520;28;20132;-78
2022/10/24 09:22:45;;;;;;;48.28;10.73;;;;;;;21.96;48.39;101357.88;5108520;28;20039;-76
2022/10/24 09:25:14;;;;;;;36.50;10.20;;;;;;;22.05;48.66;101368.59;5108083;28;20031;-77
2022/10/24 09:27:41;;;;;;;37.03;11.50;;;;;;;22.12;47.88;101363.25;5108600;28;20047;-77
2022/10/24 09:30:14;;;;;;;26.58;7.53;;;;;;;22.05;47.68;101356.78;5107667;28;20028;-77
2022/10/24 09:32:40;;;;;;;47.13;23.98;;;;;;;21.91;48.02;101363.91;5108180;28;20057;-78
2022/10/24 09:35:15;;;;;;;43.70;7.55;;;;;;;21.86;48.66;101358.09;5107590;28;20035;-78
2022/10/24 09:37:43;;;;;;;41.70;5.95;;;;;;;21.90;48.10;101331.22;5108134;28;20055;-78
2022/10/24 09:40:32;;;;;;;206.95;14.73;;;;;;;22.01;48.86;101352.72;5108329;28;20030;-78
2022/10/24 09:42:59;;;;;;;34.65;8.23;;;;;;;22.12;50.30;101355.03;5108066;28;20112;-77
2022/10/24 09:45:41;;;;;;;69.95;9.00;;;;;;;22.31;49.83;101351.81;5107669;28;20152;-78
2022/10/24 09:48:18;;;;;;;30.10;9.33;;;;;;;22.29;50.48;101326.50;5107993;28;20525;-78
2022/10/24 09:50:45;;;;;;;27.13;12.90;;;;;;;22.36;51.44;101346.63;5108230;28;20030;-77
2022/10/24 09:53:36;;;;;;;275.23;25.63;;;;;;;22.40;51.84;101341.63;5110182;28;20068;-77
2022/10/24 09:56:13;;;;;;;80.78;11.38;;;;;;;22.24;52.28;101327.03;5112300;28;20034;-78
2022/10/24 09:58:39;;;;;;;173.00;15.35;;;;;;;22.32;52.70;101330.75;5112934;28;20020;-78
2022/10/24 10:01:25;;;;;;;70.05;9.57;;;;;;;22.32;53.50;101333.50;5113091;28;20121;-76
2022/10/24 10:04:02;;;;;;;35.85;9.07;;;;;;;22.47;54.14;101335.25;5112543;28;20032;-78
2022/10/24 10:06:30;;;;;;;54.20;10.98;;;;;;;22.29;56.07;101307.31;5113003;28;20032;-77
2022/10/24 10:08:56;;;;;;;36.22;9.50;;;;;;;22.12;58.46;101325.75;5112656;28;20027;-75
2022/10/24 10:11:31;;;;;;;81.95;13.45;;;;;;;22.19;58.79;101325.88;5112885;28;20088;-76
2022/10/24 10:14:00;;;;;;;95.32;14.75;;;;;;;22.30;58.46;101305.38;5113811;28;20031;-77
2022/10/24 10:16:44;;;;;;;48.72;10.23;;;;;;;22.53;58.05;101319.94;5112528;28;20031;-76
2022/10/24 10:19:16;;;;;;;87.20;14.43;;;;;;;22.48;57.34;101319.63;5123071;27;20035;-78
2022/10/24 10:22:24;;;;;;;77.75;14.82;;;;;;;22.44;56.37;101299.97;5114261;28;20036;-78
2022/10/24 10:24:50;;;;;;;43.08;10.18;;;;;;;22.57;53.91;101308.38;5065978;28;20692;-78
2022/10/24 10:27:37;;;;;;;927.33;115.43;;;;;;;22.55;53.62;101321.44;5049092;28;20028;-79
2022/10/24 10:30:14;;;;;;;68.28;15.15;;;;;;;22.64;52.81;101311.25;5049065;28;20061;-77
2022/10/24 10:32:50;;;;;;;209.27;20.88;;;;;;;22.53;53.25;101300.75;5049160;28;20041;-77
2022/10/24 10:35:28;;;;;;;42.88;12.93;;;;;;;22.60;53.86;101310.75;5049002;28;20041;-77
2022/10/24 10:38:14;;;;;;;46.88;11.50;;;;;;;22.77;54.39;101308.75;5048782;28;20037;-76
2022/10/24 10:40:45;;;;;;;432.05;48.05;;;;;;;22.51;55.83;101313.75;5048572;28;20029;-78
2022/10/24 10:43:13;;;;;;;69.15;33.40;;;;;;;22.47;55.77;101288.63;5048893;28;20047;-77
2022/10/24 10:45:45;;;;;;;80.80;21.23;;;;;;;22.74;55.37;101309.97;5048670;28;20484;-79
2022/10/24 10:48:19;;;;;;;64.55;13.48;;;;;;;22.56;52.93;101306.72;5048677;28;20041;-79
2022/10/24 10:50:45;;;;;;;145.38;17.17;;;;;;;22.40;52.34;101312.34;5048986;28;20032;-79
2022/10/24 10:53:20;;;;;;;37.08;8.85;;;;;;;22.56;53.12;101312.19;5045949;28;20040;-77
2022/10/24 10:56:05;;;;;;;47.28;11.13;;;;;;;22.77;52.34;101298.63;5047187;28;20900;-78
2022/10/24 10:59:07;;;;;;;63.15;9.57;;;;;;;22.62;51.23;101264.84;5047783;28;20523;-78
2022/10/24 11:02:09;;;;;;;28.33;7.93;;;;;;;22.87;50.78;101292.03;5030464;28;20040;-79
2022/10/24 11:04:59;;;;;;;55.00;15.60;;;;;;;22.86;52.16;101291.16;5047221;28;20087;-79
2022/10/24 11:07:37;;;;;;;44.50;18.25;;;;;;;23.09;51.86;101291.06;5047543;28;20886;-77
2022/10/24 11:10:10;;;;;;;53.33;12.65;;;;;;;23.22;52.08;101288.50;5047934;28;20032;-79
2022/10/24 11:12:41;;;;;;;54.47;10.02;;;;;;;23.17;52.05;101290.97;5047623;28;20060;-78
2022/10/24 11:15:12;;;;;;;54.35;8.63;;;;;;;23.01;50.43;101288.41;5048152;28;20119;-79
2022/10/24 11:17:44;;;;;;;25.73;7.40;;;;;;;23.04;50.99;101293.53;5047579;28;20118;-80
2022/10/24 11:20:31;;;;;;;229.80;24.67;;;;;;;22.94;51.76;101287.47;5014858;28;20271;-78
2022/10/24 11:23:04;;;;;;;101.43;25.20;;;;;;;23.03;51.04;101287.19;5048134;28;20067;-80